Aérodrome :
LOGIN :

S'inscrire | Disclaimer

   EN    FR    IT 

 










Légende :    VFR   VFR Marginal   IFR   IFR Intensif   IFR Très Intensif
Visi : 
Plafond : 
>= 8 km
>= 3000ft
5 à 8 km
1000 à 3000 ft
1500m à 5 km
500 à 1000 ft
800 à 1500m
200 à 500 ft
< 800m
< 200 ft
Symboles :   Orages  Brouillard  Fortes neiges  Fortes précipitations  Vent > 20 kt
SIGMETs :   Divers  Orages  Givrage  Turbulence  Onde Orograph.  Cendres Volcan.






- Altitude de l'aérodrome : 49 ft
- Code IATA : GLZ


EHGR - Gilze-Rijen Airbase

DERNIER METAR :
  • 040855Z AUTO 06009KT 020V130 6000 BR OVC011 01/M01 Q1017 GRN

METARs EXPIRÉS :
  • 040825Z AUTO 06010KT 020V100 6000 BR OVC011 01/M01 Q1017 GRN
  • 040755Z AUTO 06009KT 360V110 5000 BR OVC010 01/M01 Q1017 GRN
  • 040725Z AUTO 06009KT 010V110 5000 BR OVC010 01/M01 Q1017 GRN
  • 040655Z AUTO 06009KT 020V100 5000 BR OVC010 01/M01 Q1017 GRN
  • 040625Z AUTO 06009KT 030V100 5000 BR OVC010 01/M01 Q1017 GRN

Prévision TAF périmée.



MET'MAP, la Météo Aéronautique d'un coup d'oeil ! - Copyright ORBIFLY Décembre 2007 - Disclaimer

ORBIFLY MET'MAP TEAM :

Programmation & Développement : Alexandra Zaïnal
Sur une idée originale de : Baudouin d'Aumeries
Soutien technique & logistique : Manuel Goepfert
Assistance : Marc-Olivier Méhu




SOURCES & CREDITS :

   NOAA